Time;durP1;ratioP1;P1;durP2;ratioP2;P2;SDS_P1;SDS_P2;PMS_P1;PMS_P2;Temp;Humidity;BMP_temperature;BMP_pressure;BME280_temperature;BME280_humidity;BME280_pressure;Samples;Min_cycle;Max_cycle;Signal;HPM_P1;HPM_P2
2024/03/27 00:00:45;;;;;;;4.35;3.40;;;;;;;14.75;48.67;98504.19;4950283;28;123940;-82
2024/03/27 00:03:11;;;;;;;7.15;3.42;;;;;;;14.74;48.79;98510.50;4932125;28;115564;-83
2024/03/27 00:05:38;;;;;;;5.43;3.50;;;;;;;14.74;48.80;98510.50;4936602;28;113223;-83
2024/03/27 00:08:04;;;;;;;6.97;3.20;;;;;;;14.74;48.90;98511.31;4936654;28;123986;-82
2024/03/27 00:10:31;;;;;;;4.13;3.28;;;;;;;14.72;48.70;98502.66;4936955;28;123155;-83
2024/03/27 00:12:57;;;;;;;4.68;3.30;;;;;;;14.71;48.91;98500.13;4918141;28;114549;-82
2024/03/27 00:15:23;;;;;;;5.57;3.60;;;;;;;14.72;48.75;98496.50;4931378;28;116109;-83
2024/03/27 00:17:49;;;;;;;6.60;3.50;;;;;;;14.70;48.84;98498.47;4935219;28;125125;-82
2024/03/27 00:20:15;;;;;;;5.53;3.50;;;;;;;14.67;48.69;98490.78;4936957;28;122263;-83
2024/03/27 00:22:42;;;;;;;6.32;3.97;;;;;;;14.66;48.70;98505.09;4919766;28;115077;-84
2024/03/27 00:25:08;;;;;;;6.43;3.50;;;;;;;14.63;48.87;98505.41;4917854;28;114912;-84
2024/03/27 00:27:34;;;;;;;6.57;3.38;;;;;;;14.60;48.53;98507.38;4936609;28;123926;-83
2024/03/27 00:30:00;;;;;;;5.43;3.58;;;;;;;14.58;48.77;98498.69;4918490;28;126176;-83
2024/03/27 00:32:26;;;;;;;4.55;3.35;;;;;;;14.56;48.62;98498.00;4931245;28;114141;-82
2024/03/27 00:34:53;;;;;;;5.05;3.42;;;;;;;14.54;48.61;98497.31;4937248;28;112442;-82
2024/03/27 00:37:19;;;;;;;7.88;3.63;;;;;;;14.51;48.66;98492.28;4937446;28;124244;-82
2024/03/27 00:39:45;;;;;;;6.45;3.58;;;;;;;14.49;48.66;98496.91;4949571;28;123681;-82
2024/03/27 00:42:11;;;;;;;5.03;3.63;;;;;;;14.45;48.52;98495.56;4920462;28;114406;-82
2024/03/27 00:44:37;;;;;;;6.25;3.45;;;;;;;14.41;48.53;98488.84;4918221;28;113956;-83
2024/03/27 00:47:03;;;;;;;7.70;3.65;;;;;;;14.36;48.65;98480.47;4934054;28;124535;-82
2024/03/27 00:49:30;;;;;;;5.88;3.65;;;;;;;14.31;48.44;98482.75;4924418;28;125338;-82
2024/03/27 00:51:57;;;;;;;5.75;3.55;;;;;;;14.26;48.72;98479.69;4943167;28;114395;-82
2024/03/27 00:54:23;;;;;;;5.22;3.35;;;;;;;14.22;48.73;98473.84;4939190;28;113118;-83
2024/03/27 00:56:49;;;;;;;6.30;3.38;;;;;;;14.18;48.66;98480.44;4922164;28;124476;-82
2024/03/27 00:59:15;;;;;;;6.28;3.63;;;;;;;14.15;48.80;98478.09;4911998;28;125076;-83
2024/03/27 01:01:41;;;;;;;6.82;4.03;;;;;;;14.11;48.52;98461.59;4943770;28;113629;-82
2024/03/27 01:04:08;;;;;;;6.85;4.15;;;;;;;14.08;48.78;98477.84;4945328;28;113358;-83
2024/03/27 01:06:34;;;;;;;5.93;4.10;;;;;;;14.06;48.71;98473.69;4920710;28;125589;-83
2024/03/27 01:09:00;;;;;;;6.88;4.20;;;;;;;14.03;48.80;98480.13;4919675;28;125462;-82
2024/03/27 01:11:26;;;;;;;8.05;4.00;;;;;;;14.01;48.70;98471.44;4923378;28;112914;-84
2024/03/27 01:13:52;;;;;;;9.18;4.63;;;;;;;13.98;48.71;98482.41;4914534;28;113780;-82
2024/03/27 01:16:19;;;;;;;6.13;3.95;;;;;;;13.95;48.84;98474.72;4940451;28;123817;-86
2024/03/27 01:18:45;;;;;;;7.03;4.57;;;;;;;13.90;48.80;98469.84;4938607;28;125858;-86
2024/03/27 01:21:11;;;;;;;6.63;3.88;;;;;;;13.86;48.86;98467.63;4943318;28;112344;-84
2024/03/27 01:23:38;;;;;;;7.45;4.35;;;;;;;13.81;48.85;98466.25;4937128;28;115132;-83
2024/03/27 01:26:04;;;;;;;8.13;4.25;;;;;;;13.79;48.99;98462.06;4947723;28;125039;-82
2024/03/27 01:28:30;;;;;;;8.10;4.30;;;;;;;13.75;49.11;98456.22;4931746;28;123360;-82
2024/03/27 01:30:56;;;;;;;7.70;4.07;;;;;;;13.73;49.04;98452.88;4913718;28;116436;-85
2024/03/27 01:33:22;;;;;;;7.00;4.53;;;;;;;13.71;49.17;98454.84;4930098;28;116142;-83
2024/03/27 01:35:50;;;;;;;8.05;4.32;;;;;;;13.69;49.16;98459.44;4934973;28;125346;-82
2024/03/27 01:38:17;;;;;;;6.57;4.20;;;;;;;13.67;49.22;98461.41;4920958;28;123680;-83
2024/03/27 01:40:43;;;;;;;7.63;4.00;;;;;;;13.66;49.34;98456.28;4913606;28;114480;-82
2024/03/27 01:43:09;;;;;;;7.15;4.18;;;;;;;13.64;49.36;98453.75;4928871;28;115602;-82
2024/03/27 01:45:36;;;;;;;5.72;4.13;;;;;;;13.62;49.48;98448.56;4931422;28;122954;-83
2024/03/27 01:48:02;;;;;;;6.90;3.72;;;;;;;13.61;49.30;98438.91;4928669;28;126129;-83
2024/03/27 01:50:29;;;;;;;6.72;4.10;;;;;;;13.60;49.31;98437.25;4918788;28;114180;-83
2024/03/27 01:52:59;;;;;;;7.30;4.18;;;;;;;13.58;49.51;98444.53;4944135;28;113770;-82
2024/03/27 01:55:26;;;;;;;6.93;3.95;;;;;;;13.58;49.54;98439.22;4915207;28;123446;-82
2024/03/27 01:57:53;;;;;;;7.20;4.03;;;;;;;13.58;49.60;98427.72;4919287;28;123085;-85
2024/03/27 02:00:20;;;;;;;7.13;4.00;;;;;;;13.57;49.54;98426.06;4950593;28;115950;-82
2024/03/27 02:02:46;;;;;;;6.63;3.88;;;;;;;13.57;49.60;98420.75;4933772;28;113511;-83
2024/03/27 02:05:13;;;;;;;7.75;3.83;;;;;;;13.57;49.54;98418.09;4929703;28;123876;-83
2024/03/27 02:07:40;;;;;;;7.13;3.90;;;;;;;13.58;49.52;98417.09;4945553;28;124824;-83
2024/03/27 02:10:10;;;;;;;8.05;4.05;;;;;;;13.58;49.55;98417.09;4936568;28;115967;-83
2024/03/27 02:12:40;;;;;;;6.68;4.07;;;;;;;13.57;49.57;98415.44;4935136;28;112453;-83
2024/03/27 02:15:07;;;;;;;6.75;3.47;;;;;;;13.56;49.56;98414.59;4927092;28;123863;-85
2024/03/27 02:17:34;;;;;;;8.82;4.55;;;;;;;13.56;49.76;98409.28;4938750;28;124677;-83
2024/03/27 02:20:00;;;;;;;6.07;3.83;;;;;;;13.58;49.76;98395.81;4921677;28;113597;-83
2024/03/27 02:22:28;;;;;;;8.13;4.25;;;;;;;13.58;49.75;98396.66;4919925;28;113796;-83
2024/03/27 02:25:03;;;;;;;8.75;4.18;;;;;;;13.58;49.73;98396.66;4933811;28;124986;-84
2024/03/27 02:27:29;;;;;;;6.55;3.75;;;;;;;13.60;49.72;98394.69;4917366;28;124036;-83
2024/03/27 02:29:55;;;;;;;7.90;4.20;;;;;;;13.61;49.67;98400.84;4954808;28;114947;-83
2024/03/27 02:32:22;;;;;;;8.45;3.85;;;;;;;13.62;49.77;98407.84;4919795;28;115561;-83
2024/03/27 02:34:48;;;;;;;6.40;3.80;;;;;;;13.60;49.81;98400.00;4934984;28;124037;-83
2024/03/27 02:37:14;;;;;;;7.78;3.78;;;;;;;13.62;49.75;98405.19;4934837;28;125498;-84
2024/03/27 02:39:41;;;;;;;11.05;4.30;;;;;;;13.62;49.98;98413.16;4935838;28;113436;-84
2024/03/27 02:42:07;;;;;;;7.18;3.90;;;;;;;13.62;50.40;98407.84;4938398;28;113464;-83
2024/03/27 02:44:33;;;;;;;9.80;4.25;;;;;;;13.64;49.93;98403.22;4921379;28;125279;-83
2024/03/27 02:46:59;;;;;;;10.88;4.13;;;;;;;13.66;50.12;98393.25;4915811;28;125369;-84
2024/03/27 02:49:26;;;;;;;6.78;3.90;;;;;;;13.67;50.20;98400.25;4915721;28;114712;-84
2024/03/27 02:51:54;;;;;;;6.38;4.10;;;;;;;13.69;50.16;98398.25;4927458;28;115303;-83
2024/03/27 02:54:20;;;;;;;6.32;4.00;;;;;;;13.71;50.08;98400.78;4930999;28;124840;-83
2024/03/27 02:56:46;;;;;;;9.13;3.80;;;;;;;13.73;50.22;98394.34;4915388;28;123914;-82
2024/03/27 02:59:12;;;;;;;8.70;4.55;;;;;;;13.75;50.14;98395.03;4935102;28;115257;-84
2024/03/27 03:01:38;;;;;;;5.72;3.53;;;;;;;13.76;50.23;98394.03;4922753;28;114249;-83
2024/03/27 03:04:05;;;;;;;7.53;4.10;;;;;;;13.78;50.25;98394.72;4919977;28;125903;-82
2024/03/27 03:06:31;;;;;;;8.45;4.10;;;;;;;13.80;50.21;98395.41;4917097;28;124828;-83
2024/03/27 03:08:57;;;;;;;7.60;3.70;;;;;;;13.81;50.20;98391.75;4923037;28;116025;-82
2024/03/27 03:11:24;;;;;;;8.25;3.58;;;;;;;13.83;50.33;98395.09;4954162;28;114896;-82
2024/03/27 03:13:50;;;;;;;7.72;4.07;;;;;;;13.83;50.24;98384.47;4939102;28;122208;-82
2024/03/27 03:16:16;;;;;;;9.35;4.38;;;;;;;13.85;50.31;98391.47;4958289;28;125191;-83
2024/03/27 03:18:42;;;;;;;7.25;4.00;;;;;;;13.86;50.25;98401.09;4951231;28;112459;-86
2024/03/27 03:21:08;;;;;;;8.27;3.90;;;;;;;13.87;49.96;98389.50;4937317;28;113501;-84
2024/03/27 03:23:35;;;;;;;8.82;4.10;;;;;;;13.86;50.34;98393.97;4934935;28;123869;-83
2024/03/27 03:26:01;;;;;;;5.80;3.78;;;;;;;13.87;50.18;98389.50;4932807;28;123668;-83
2024/03/27 03:28:27;;;;;;;6.25;3.97;;;;;;;13.86;50.16;98396.63;4930804;28;115193;-85
2024/03/27 03:30:53;;;;;;;6.18;3.75;;;;;;;13.88;50.33;98401.78;4927962;28;115288;-84
2024/03/27 03:33:19;;;;;;;8.40;4.05;;;;;;;13.88;50.35;98415.97;4946015;28;123282;-84
2024/03/27 03:35:57;;;;;;;8.25;4.00;;;;;;;13.87;50.49;98410.78;4939466;28;121684;-83
2024/03/27 03:38:25;;;;;;;7.25;3.80;;;;;;;13.87;50.40;98405.47;4933779;28;112606;-83
2024/03/27 03:40:56;;;;;;;5.70;3.97;;;;;;;13.87;50.54;98408.13;4938212;28;114079;-82
2024/03/27 03:43:22;;;;;;;8.00;4.03;;;;;;;13.89;50.59;98403.47;4951547;28;122835;-84
2024/03/27 03:45:49;;;;;;;7.97;3.95;;;;;;;13.89;50.60;98404.31;4917322;28;125274;-82
2024/03/27 03:48:15;;;;;;;7.35;4.00;;;;;;;13.90;50.57;98399.81;4938430;28;114554;-83
2024/03/27 03:50:41;;;;;;;10.82;3.92;;;;;;;13.90;50.67;98394.50;4919723;28;114928;-82
2024/03/27 03:53:08;;;;;;;8.23;4.20;;;;;;;13.91;50.73;98390.84;4919837;28;123905;-85
2024/03/27 03:55:35;;;;;;;6.57;4.00;;;;;;;13.92;50.65;98387.19;4936788;28;122927;-83
2024/03/27 03:58:01;;;;;;;7.90;4.10;;;;;;;13.92;50.73;98381.88;4931358;28;114937;-83
2024/03/27 04:00:27;;;;;;;7.18;4.10;;;;;;;13.91;50.90;98380.22;4937402;28;114608;-83
2024/03/27 04:02:53;;;;;;;7.90;4.38;;;;;;;13.90;51.00;98376.72;4934568;28;124423;-83
2024/03/27 04:05:20;;;;;;;5.90;4.05;;;;;;;13.92;50.98;98365.91;4920750;28;125519;-83
2024/03/27 04:07:47;;;;;;;6.30;3.90;;;;;;;13.91;50.98;98353.59;4951596;28;115039;-85
2024/03/27 04:10:14;;;;;;;9.50;4.10;;;;;;;13.91;51.12;98354.44;4933950;28;114057;-82
2024/03/27 04:12:40;;;;;;;8.63;4.20;;;;;;;13.91;50.95;98342.97;4936285;28;124595;-83
2024/03/27 04:15:07;;;;;;;9.68;4.50;;;;;;;13.91;51.27;98342.97;4950748;28;124023;-83
2024/03/27 04:17:33;;;;;;;7.65;3.90;;;;;;;13.91;51.26;98342.97;4936547;28;117225;-83
2024/03/27 04:20:00;;;;;;;5.82;4.07;;;;;;;13.89;51.27;98350.25;4952981;28;114201;-83
2024/03/27 04:22:31;;;;;;;9.15;4.57;;;;;;;13.87;51.27;98346.91;4913698;28;122228;-84
2024/03/27 04:24:57;;;;;;;8.98;4.32;;;;;;;13.86;51.20;98353.22;4937222;28;125813;-83
2024/03/27 04:27:24;;;;;;;8.13;3.63;;;;;;;13.85;51.49;98354.22;4934358;28;114102;-83
2024/03/27 04:29:54;;;;;;;5.65;3.80;;;;;;;13.82;51.77;98356.19;4936189;28;114734;-83
2024/03/27 04:32:20;;;;;;;5.60;3.30;;;;;;;13.81;51.52;98354.50;4914218;28;125210;-84
2024/03/27 04:34:47;;;;;;;6.40;3.55;;;;;;;13.79;51.65;98367.13;4949954;28;123691;-83
2024/03/27 04:37:13;;;;;;;7.22;3.20;;;;;;;13.80;51.78;98362.63;4933011;28;114058;-83
2024/03/27 04:39:39;;;;;;;5.28;3.00;;;;;;;13.79;51.84;98364.47;4933356;28;114137;-83
2024/03/27 04:42:08;;;;;;;4.25;3.30;;;;;;;13.80;52.08;98363.47;4919172;28;124747;-83
2024/03/27 04:44:35;;;;;;;4.90;2.80;;;;;;;13.82;51.84;98360.66;4936419;28;121889;-85
2024/03/27 04:47:02;;;;;;;5.22;2.50;;;;;;;13.82;52.40;98361.53;4917623;28;116252;-83
2024/03/27 04:49:29;;;;;;;2.90;2.22;;;;;;;13.83;51.99;98368.50;4931775;28;114542;-83
2024/03/27 04:51:55;;;;;;;3.28;1.92;;;;;;;13.83;52.06;98363.19;4918716;28;124861;-84
2024/03/27 04:54:21;;;;;;;3.67;1.85;;;;;;;13.83;52.13;98373.81;4950225;28;123528;-83
2024/03/27 04:56:48;;;;;;;2.88;1.80;;;;;;;13.86;51.89;98382.47;4913720;28;115514;-82
2024/03/27 04:59:14;;;;;;;2.88;2.03;;;;;;;13.87;52.15;98389.50;4934745;28;114829;-83
2024/03/27 05:01:40;;;;;;;4.05;1.70;;;;;;;13.88;52.10;98391.16;4919774;28;124997;-83
2024/03/27 05:04:07;;;;;;;2.28;1.70;;;;;;;13.90;52.10;98389.16;4918672;28;124509;-83
2024/03/27 05:06:39;;;;;;;3.05;1.70;;;;;;;13.93;52.29;98386.22;4935308;28;113703;-85
2024/03/27 05:09:09;;;;;;;2.03;1.58;;;;;;;13.95;52.15;98386.91;4926162;28;114940;-84
2024/03/27 05:11:36;;;;;;;2.25;1.80;;;;;;;13.96;52.17;98378.78;4935308;28;125068;-83
2024/03/27 05:14:03;;;;;;;1.83;1.33;;;;;;;13.99;52.21;98393.59;4916814;28;123237;-84
2024/03/27 05:16:29;;;;;;;2.33;1.73;;;;;;;14.00;52.13;98405.94;4914280;28;114885;-82
2024/03/27 05:18:55;;;;;;;1.63;1.50;;;;;;;14.03;52.07;98413.59;4936002;28;113883;-86
2024/03/27 05:21:21;;;;;;;3.08;1.90;;;;;;;14.02;52.10;98410.09;4936343;28;124551;-84
2024/03/27 05:23:48;;;;;;;2.22;1.80;;;;;;;14.04;52.17;98407.28;4931675;28;124597;-82
2024/03/27 05:26:14;;;;;;;2.45;2.00;;;;;;;14.06;52.07;98415.97;4942500;28;115028;-82
2024/03/27 05:28:40;;;;;;;2.75;2.08;;;;;;;14.08;52.08;98423.78;4938748;28;115200;-83
2024/03/27 05:31:06;;;;;;;3.25;2.20;;;;;;;14.09;52.36;98426.31;4946972;28;124264;-83
2024/03/27 05:33:32;;;;;;;2.45;1.95;;;;;;;14.10;52.19;98435.13;4943374;28;124629;-83
2024/03/27 05:35:59;;;;;;;3.17;2.00;;;;;;;14.11;52.02;98442.97;4921428;28;114719;-84
2024/03/27 05:38:26;;;;;;;2.17;1.90;;;;;;;14.11;52.06;98440.31;4916739;28;115681;-83
2024/03/27 05:40:52;;;;;;;2.35;1.67;;;;;;;14.11;52.11;98439.44;4929488;28;124602;-85
2024/03/27 05:43:19;;;;;;;2.70;1.70;;;;;;;14.12;52.35;98441.97;4915851;28;124979;-82
2024/03/27 05:45:45;;;;;;;2.58;1.73;;;;;;;14.12;51.82;98436.63;4938544;28;115042;-83
2024/03/27 05:48:12;;;;;;;2.42;1.27;;;;;;;14.12;51.90;98426.00;4929214;28;114207;-83
2024/03/27 05:50:38;;;;;;;1.75;1.40;;;;;;;14.13;51.99;98433.00;4942997;28;124943;-84
2024/03/27 05:53:04;;;;;;;2.67;1.67;;;;;;;14.13;51.89;98438.31;4928985;28;124525;-82
2024/03/27 05:55:30;;;;;;;3.92;1.75;;;;;;;14.13;52.02;98442.81;4932761;28;116020;-84
2024/03/27 05:57:56;;;;;;;3.38;1.77;;;;;;;14.14;52.08;98439.97;4924331;28;113332;-85
2024/03/27 06:00:23;;;;;;;2.50;1.73;;;;;;;14.14;51.97;98434.66;4918772;28;121150;-83
2024/03/27 06:02:49;;;;;;;3.33;1.88;;;;;;;14.15;51.69;98457.66;4935080;28;124446;-83
2024/03/27 06:05:15;;;;;;;3.08;1.83;;;;;;;14.16;52.09;98467.28;4936612;28;115252;-83
2024/03/27 06:07:42;;;;;;;3.97;2.00;;;;;;;14.18;51.99;98473.31;4935295;28;115737;-83
2024/03/27 06:10:08;;;;;;;3.17;1.90;;;;;;;14.17;51.42;98471.63;4916285;28;125423;-82
2024/03/27 06:12:34;;;;;;;2.80;2.00;;;;;;;14.15;51.87;98468.28;4934633;28;125715;-83
2024/03/27 06:15:00;;;;;;;2.25;1.85;;;;;;;14.15;52.11;98481.59;4936840;28;115820;-83
2024/03/27 06:17:27;;;;;;;4.28;1.58;;;;;;;14.14;51.96;98485.22;4920045;28;114767;-83
2024/03/27 06:19:53;;;;;;;2.70;1.85;;;;;;;14.14;51.95;98477.25;4931767;28;123478;-83
2024/03/27 06:22:19;;;;;;;2.75;2.00;;;;;;;14.16;51.96;98491.25;4918806;28;123825;-82
2024/03/27 06:24:45;;;;;;;3.15;2.20;;;;;;;14.18;51.96;98489.31;4932785;28;115609;-82
2024/03/27 06:27:11;;;;;;;3.63;2.47;;;;;;;14.18;52.01;98491.09;4936058;28;115798;-84
2024/03/27 06:29:38;;;;;;;2.63;1.88;;;;;;;14.17;52.00;98482.28;4939020;28;123012;-82
2024/03/27 06:32:06;;;;;;;4.45;3.40;;;;;;;14.18;52.25;98478.66;4949209;28;123768;-82
2024/03/27 06:34:32;;;;;;;3.33;2.75;;;;;;;14.18;52.33;98473.31;4937920;28;114529;-83
2024/03/27 06:36:59;;;;;;;3.30;2.35;;;;;;;14.19;52.41;98480.31;4959718;28;113460;-83
2024/03/27 06:39:25;;;;;;;3.33;2.85;;;;;;;14.20;52.47;98475.81;4920817;28;122038;-82
2024/03/27 06:41:51;;;;;;;5.43;3.13;;;;;;;14.20;52.58;98482.00;4922110;28;124220;-82
2024/03/27 06:44:18;;;;;;;3.25;2.47;;;;;;;14.19;52.64;98469.66;4936362;28;114076;-82
2024/03/27 06:46:45;;;;;;;3.13;2.75;;;;;;;14.18;52.91;98473.31;4934516;28;113938;-82
2024/03/27 06:49:21;;;;;;;2.60;1.70;;;;;;;14.19;52.52;98484.81;4930261;28;125324;-83
2024/03/27 06:51:49;;;;;;;3.40;2.40;;;;;;;14.17;52.52;98492.94;4920699;28;125034;-83
2024/03/27 06:54:15;;;;;;;3.63;2.33;;;;;;;14.16;52.50;98491.25;4935541;28;114351;-83
2024/03/27 06:56:44;;;;;;;3.65;2.47;;;;;;;14.15;52.55;98489.59;4937060;28;113790;-83
2024/03/27 06:59:10;;;;;;;3.20;2.20;;;;;;;14.14;52.48;98503.88;4931938;28;123570;-83
2024/03/27 07:01:36;;;;;;;3.42;1.92;;;;;;;14.13;52.53;98512.84;4909392;28;125902;-81
2024/03/27 07:04:03;;;;;;;4.20;2.25;;;;;;;14.13;52.29;98523.50;4934300;28;113553;-82
2024/03/27 07:06:29;;;;;;;4.68;2.20;;;;;;;14.10;52.78;98518.47;4937411;28;113926;-83
2024/03/27 07:08:55;;;;;;;4.03;2.38;;;;;;;14.10;52.54;98526.44;4935378;28;123582;-83
2024/03/27 07:11:21;;;;;;;3.70;1.98;;;;;;;14.09;52.34;98531.91;4914817;28;125020;-83
2024/03/27 07:13:48;;;;;;;3.47;2.20;;;;;;;14.06;52.43;98538.38;4934495;28;115981;-82
2024/03/27 07:16:14;;;;;;;4.20;2.17;;;;;;;14.05;52.44;98530.56;4933762;28;114844;-82
2024/03/27 07:18:40;;;;;;;4.18;2.40;;;;;;;14.07;52.53;98550.72;4933515;28;125502;-85
2024/03/27 07:21:06;;;;;;;3.55;1.88;;;;;;;14.07;52.18;98556.06;4915426;28;123855;-83
2024/03/27 07:23:33;;;;;;;3.35;2.17;;;;;;;14.05;52.25;98557.16;4933146;28;113350;-83
2024/03/27 07:26:05;;;;;;;4.07;2.38;;;;;;;13.99;52.20;98563.91;4949396;28;113751;-86
2024/03/27 07:28:31;;;;;;;4.10;2.45;;;;;;;13.94;52.18;98572.34;4929986;28;123851;-82
2024/03/27 07:30:58;;;;;;;4.80;2.80;;;;;;;13.88;52.30;98578.28;4917947;28;123916;-83
2024/03/27 07:33:25;;;;;;;5.70;2.70;;;;;;;13.81;52.22;98580.66;4928717;28;114766;-82
2024/03/27 07:35:53;;;;;;;5.28;2.75;;;;;;;13.76;52.32;98585.56;4917221;28;115012;-82
2024/03/27 07:38:20;;;;;;;6.72;3.05;;;;;;;13.71;52.08;98593.16;4917819;28;124314;-82
2024/03/27 07:40:46;;;;;;;5.20;3.05;;;;;;;13.65;52.21;98583.09;4935002;28;124643;-83
2024/03/27 07:43:13;;;;;;;4.65;2.85;;;;;;;13.60;52.23;98596.00;4936341;28;114163;-83
2024/03/27 07:45:39;;;;;;;5.32;3.00;;;;;;;13.57;52.18;98585.63;4962198;28;113147;-83
2024/03/27 07:48:06;;;;;;;5.78;3.10;;;;;;;13.53;52.15;98585.09;4953601;28;122174;-84
2024/03/27 07:50:32;;;;;;;6.65;3.30;;;;;;;13.49;52.13;98582.88;4945608;28;123676;-86
2024/03/27 07:52:59;;;;;;;6.88;3.33;;;;;;;13.45;52.17;98582.31;4934004;28;114736;-83
2024/03/27 07:55:25;;;;;;;5.55;3.13;;;;;;;13.43;52.27;98585.09;4928757;28;115497;-83
2024/03/27 07:57:51;;;;;;;7.43;3.45;;;;;;;13.42;52.22;98579.94;4947780;28;125868;-82
2024/03/27 08:00:18;;;;;;;5.20;3.45;;;;;;;13.40;52.16;98585.38;4917708;28;122948;-82
2024/03/27 08:02:44;;;;;;;5.72;3.35;;;;;;;13.40;52.29;98590.69;4917982;28;114456;-82
2024/03/27 08:05:11;;;;;;;5.88;3.33;;;;;;;13.38;52.30;98590.00;4937001;28;115910;-83
2024/03/27 08:07:37;;;;;;;5.35;3.33;;;;;;;13.38;52.26;98575.88;4919626;28;122031;-82
2024/03/27 08:10:04;;;;;;;5.35;3.22;;;;;;;13.36;52.30;98568.03;4920778;28;123097;-82
2024/03/27 08:12:30;;;;;;;10.23;3.35;;;;;;;13.37;52.37;98559.09;4933612;28;114023;-84
2024/03/27 08:14:57;;;;;;;6.25;3.45;;;;;;;13.40;52.25;98580.06;4929496;28;111902;-82
2024/03/27 08:17:24;;;;;;;7.65;3.20;;;;;;;13.41;52.41;98576.44;4925905;28;122969;-82
2024/03/27 08:19:50;;;;;;;7.43;3.60;;;;;;;13.44;52.19;98584.13;4934410;28;122131;-82
2024/03/27 08:22:16;;;;;;;5.18;3.30;;;;;;;13.46;52.47;98588.47;4914430;28;115044;-83
2024/03/27 08:24:44;;;;;;;6.30;3.22;;;;;;;13.49;52.38;98589.00;4916400;28;115054;-85
2024/03/27 08:27:10;;;;;;;5.22;2.97;;;;;;;13.49;52.45;98582.88;4919494;28;123698;-82
2024/03/27 08:29:36;;;;;;;5.07;2.90;;;;;;;13.51;52.13;98580.91;4932756;28;122019;-86
2024/03/27 08:32:03;;;;;;;3.78;2.50;;;;;;;13.51;52.48;98576.41;4916773;28;114017;-84
2024/03/27 08:34:29;;;;;;;4.93;2.70;;;;;;;13.51;52.44;98567.59;4933014;28;112320;-84
2024/03/27 08:36:56;;;;;;;5.90;2.72;;;;;;;13.52;52.55;98566.59;4943831;28;125687;-84
2024/03/27 08:39:23;;;;;;;7.03;2.80;;;;;;;13.55;52.44;98574.31;4936819;28;125466;-83
2024/03/27 08:41:49;;;;;;;5.47;2.67;;;;;;;13.60;52.67;98569.41;4918743;28;115631;-83
2024/03/27 08:44:17;;;;;;;4.40;2.85;;;;;;;13.64;52.50;98576.09;4916685;28;96942;-84
2024/03/27 08:46:43;;;;;;;6.55;3.38;;;;;;;13.67;52.43;98570.47;4915575;28;123953;-84
2024/03/27 08:49:13;;;;;;;5.50;2.90;;;;;;;13.68;52.54;98572.16;4919867;28;124411;-83
2024/03/27 08:51:39;;;;;;;6.80;3.28;;;;;;;13.68;52.68;98577.47;4935144;28;115746;-83
2024/03/27 08:54:06;;;;;;;5.43;2.85;;;;;;;13.71;52.71;98577.22;4933563;28;114791;-84
2024/03/27 08:56:32;;;;;;;5.80;2.95;;;;;;;13.74;52.58;98586.72;4931316;28;124627;-83
2024/03/27 08:58:58;;;;;;;4.85;2.80;;;;;;;13.76;52.54;98585.56;4948692;28;124731;-86
2024/03/27 09:01:25;;;;;;;6.20;2.45;;;;;;;13.77;52.49;98600.56;4920852;28;114519;-83
2024/03/27 09:03:51;;;;;;;6.25;2.50;;;;;;;13.79;52.54;98605.75;4932711;28;113801;-82
2024/03/27 09:06:18;;;;;;;4.82;2.80;;;;;;;13.76;52.61;98622.81;4929384;28;125102;-83
2024/03/27 09:08:44;;;;;;;5.40;2.85;;;;;;;13.75;52.46;98615.84;4947145;28;124985;-84
2024/03/27 09:11:11;;;;;;;5.57;2.83;;;;;;;13.74;52.50;98619.47;4933733;28;115380;-83
2024/03/27 09:13:41;;;;;;;6.10;2.95;;;;;;;13.73;52.60;98628.44;4947093;28;113151;-83
2024/03/27 09:16:08;;;;;;;5.25;2.70;;;;;;;13.71;52.48;98630.41;4913057;28;124882;-82
2024/03/27 09:18:34;;;;;;;5.18;3.00;;;;;;;13.70;52.51;98634.03;4916684;28;125029;-83
2024/03/27 09:21:01;;;;;;;4.43;2.28;;;;;;;13.70;52.58;98628.72;4934233;28;114873;-84
2024/03/27 09:23:28;;;;;;;7.45;2.47;;;;;;;13.70;52.83;98639.38;4944293;28;115308;-83
2024/03/27 09:25:55;;;;;;;4.97;2.70;;;;;;;13.72;52.75;98634.72;4943872;28;122693;-83
2024/03/27 09:28:23;;;;;;;5.60;3.38;;;;;;;13.73;52.90;98641.75;4911814;28;122274;-84
2024/03/27 09:30:49;;;;;;;5.82;2.75;;;;;;;13.77;52.82;98635.16;4940057;28;114174;-83
2024/03/27 09:33:16;;;;;;;8.13;3.00;;;;;;;13.80;52.90;98629.53;4912244;28;111978;-85
2024/03/27 09:35:43;;;;;;;5.60;2.65;;;;;;;13.83;52.92;98645.22;4913973;28;125158;-84
2024/03/27 09:38:10;;;;;;;5.78;2.10;;;;;;;13.85;52.85;98641.56;4914807;28;124218;-84
2024/03/27 09:40:56;;;;;;;4.78;2.20;;;;;;;13.84;53.02;98651.34;4948579;28;114870;-84
2024/03/27 09:43:24;;;;;;;4.57;2.60;;;;;;;13.87;52.88;98655.56;4937086;28;114069;-84
2024/03/27 09:45:52;;;;;;;6.03;2.60;;;;;;;13.89;52.73;98664.25;4940617;28;122595;-83
2024/03/27 09:48:18;;;;;;;5.00;2.10;;;;;;;13.90;52.85;98660.59;4932686;28;125832;-84
2024/03/27 09:50:44;;;;;;;4.20;2.42;;;;;;;13.91;52.96;98663.09;4931361;28;114513;-86
2024/03/27 09:53:11;;;;;;;5.82;2.58;;;;;;;13.92;52.86;98674.59;4915588;28;115687;-84
2024/03/27 09:55:38;;;;;;;5.75;2.47;;;;;;;13.90;52.83;98671.22;4917344;28;125200;-86
2024/03/27 09:58:12;;;;;;;4.05;2.20;;;;;;;13.86;52.88;98665.34;4920314;28;123489;-83
2024/03/27 10:00:39;;;;;;;3.70;2.28;;;;;;;13.89;53.10;98680.22;4927661;28;112654;-85
2024/03/27 10:03:05;;;;;;;5.97;2.28;;;;;;;13.90;53.05;98676.56;4943160;28;113168;-83
2024/03/27 10:05:33;;;;;;;5.35;2.63;;;;;;;13.90;53.05;98682.75;4918260;28;124214;-83
2024/03/27 10:08:00;;;;;;;7.00;2.55;;;;;;;13.91;53.11;98672.94;4911154;28;123822;-85
2024/03/27 10:10:26;;;;;;;4.22;2.45;;;;;;;13.90;52.87;98677.41;4915354;28;114995;-84
2024/03/27 10:12:52;;;;;;;7.20;2.70;;;;;;;13.87;52.95;98683.00;4929588;28;114948;-85
2024/03/27 10:15:19;;;;;;;6.57;2.40;;;;;;;13.85;53.11;98681.50;4914480;28;125480;-85
2024/03/27 10:17:45;;;;;;;5.07;2.50;;;;;;;13.83;53.16;98693.09;4915566;28;125826;-82
2024/03/27 10:20:11;;;;;;;6.25;2.63;;;;;;;13.82;53.10;98686.13;4931454;28;115197;-82
2024/03/27 10:22:39;;;;;;;4.55;2.45;;;;;;;13.78;53.04;98695.34;4920843;28;115598;-85
2024/03/27 10:25:06;;;;;;;5.35;2.58;;;;;;;13.75;53.32;98700.97;4934021;28;123666;-81
2024/03/27 10:27:33;;;;;;;5.13;2.58;;;;;;;13.73;53.14;98694.94;4945585;28;124947;-81
2024/03/27 10:30:01;;;;;;;7.00;2.70;;;;;;;13.69;53.16;98696.19;4931837;28;114935;-82
2024/03/27 10:32:27;;;;;;;4.38;2.40;;;;;;;13.67;53.58;98692.00;4910849;28;113473;-82
2024/03/27 10:34:53;;;;;;;6.82;2.65;;;;;;;13.65;53.48;98689.47;4916569;28;123997;-85
2024/03/27 10:37:20;;;;;;;5.72;2.58;;;;;;;13.66;53.50;98693.84;4916196;28;124127;-83
2024/03/27 10:39:48;;;;;;;6.90;2.50;;;;;;;13.69;53.71;98695.38;4932623;28;115508;-83
2024/03/27 10:42:38;;;;;;;5.38;2.78;;;;;;;13.73;53.71;98697.63;4927297;28;115658;-83
2024/03/27 10:45:06;;;;;;;6.57;2.67;;;;;;;13.78;53.61;98695.34;4926164;28;122267;-83
2024/03/27 10:47:34;;;;;;;4.80;2.95;;;;;;;13.81;53.68;98684.44;4913763;28;125734;-83
2024/03/27 10:50:04;;;;;;;6.40;2.72;;;;;;;13.81;53.50;98684.44;4915567;28;114859;-83
2024/03/27 10:52:33;;;;;;;5.93;2.67;;;;;;;13.77;53.53;98677.72;4936562;28;113081;-83
2024/03/27 10:55:03;;;;;;;5.78;2.78;;;;;;;13.77;53.53;98677.72;4930544;28;123351;-83
2024/03/27 10:57:30;;;;;;;3.95;2.58;;;;;;;13.78;53.67;98684.69;4934049;28;123759;-84
2024/03/27 10:59:57;;;;;;;7.05;3.08;;;;;;;13.85;53.89;98689.47;4940400;28;114224;-84
2024/03/27 11:02:23;;;;;;;5.72;3.22;;;;;;;13.87;53.81;98693.66;4922261;28;114589;-83
2024/03/27 11:04:54;;;;;;;5.75;3.20;;;;;;;13.90;53.80;98692.53;4940785;28;123703;-86
2024/03/27 11:07:21;;;;;;;5.85;2.97;;;;;;;13.91;53.70;98700.38;4936116;28;123909;-82
2024/03/27 11:09:53;;;;;;;6.45;3.42;;;;;;;13.90;53.85;98703.16;4926490;28;112433;-85
2024/03/27 11:12:21;;;;;;;4.90;3.10;;;;;;;13.90;53.83;98708.50;4938347;28;114171;-83
2024/03/27 11:14:48;;;;;;;4.93;2.80;;;;;;;13.89;53.63;98717.47;4922953;28;124028;-83
2024/03/27 11:17:16;;;;;;;5.90;2.75;;;;;;;13.85;53.64;98716.09;4936207;28;123829;-83
2024/03/27 11:19:43;;;;;;;5.97;2.95;;;;;;;13.80;53.66;98713.84;4939085;28;114360;-83
2024/03/27 11:22:17;;;;;;;6.93;2.97;;;;;;;13.79;53.71;98720.16;4923599;28;113229;-88